createdAt,value
2022-11-27T00:02:55.823Z,4.7
2022-11-27T00:08:38.931Z,4.7
2022-11-27T00:14:22.320Z,4.5
2022-11-27T00:20:05.649Z,4.3
2022-11-27T00:25:54.819Z,4
2022-11-27T00:31:39.034Z,3.9
2022-11-27T00:37:22.214Z,3.4
2022-11-27T00:43:05.363Z,3.8
2022-11-27T00:48:48.643Z,3.8
2022-11-27T00:54:31.508Z,4
2022-11-27T01:00:15.826Z,3.8
2022-11-27T01:05:58.890Z,3.5
2022-11-27T01:11:42.101Z,3.1
2022-11-27T01:17:25.437Z,3.4
2022-11-27T01:23:08.470Z,3.4
2022-11-27T01:28:53.049Z,3.3
2022-11-27T01:34:36.224Z,2.8
2022-11-27T01:40:19.621Z,3.2
2022-11-27T01:46:02.868Z,2.8
2022-11-27T01:51:47.119Z,2.8
2022-11-27T01:57:32.494Z,2.7
2022-11-27T02:03:15.749Z,2.9
2022-11-27T02:08:58.881Z,2.8
2022-11-27T02:14:46.842Z,2.6
2022-11-27T02:20:36.825Z,2.5
2022-11-27T02:26:36.478Z,3
2022-11-27T02:32:23.149Z,2.5
2022-11-27T02:38:09.521Z,2.5
2022-11-27T02:43:53.876Z,2.7
2022-11-27T02:49:38.836Z,2.8
2022-11-27T02:55:23.472Z,2.6
2022-11-27T03:01:07.506Z,2.7
2022-11-27T03:06:52.477Z,2.7
2022-11-27T03:12:35.681Z,2.6
2022-11-27T03:18:23.291Z,2.6
2022-11-27T03:24:08.398Z,2.5
2022-11-27T03:29:53.302Z,3
2022-11-27T03:35:36.513Z,2.7
2022-11-27T03:41:23.646Z,2.6
2022-11-27T03:47:12.528Z,2.5
2022-11-27T03:53:02.181Z,2.7
2022-11-27T03:58:49.149Z,2.7
2022-11-27T04:04:33.135Z,2.4
2022-11-27T04:10:17.373Z,2.4
2022-11-27T04:16:01.428Z,2.5
2022-11-27T04:21:45.674Z,2.6
2022-11-27T04:27:28.825Z,2.6
2022-11-27T04:33:13.002Z,2.7
2022-11-27T04:38:55.852Z,2.4
2022-11-27T04:44:39.387Z,2.5
2022-11-27T04:50:23.985Z,2.4
2022-11-27T04:56:07.263Z,2.6
2022-11-27T05:01:51.570Z,2.4
2022-11-27T05:07:34.662Z,2.4
2022-11-27T05:13:17.916Z,2.5
2022-11-27T05:19:01.100Z,2.7
2022-11-27T05:24:44.481Z,2.6
2022-11-27T05:30:28.551Z,2.7
2022-11-27T05:36:11.824Z,2.5
2022-11-27T05:41:54.525Z,2.8
2022-11-27T05:47:38.520Z,2.3
2022-11-27T05:53:21.356Z,2.7
2022-11-27T05:59:04.360Z,2.5
2022-11-27T06:04:47.273Z,2.4
2022-11-27T06:10:30.231Z,2.8
2022-11-27T06:16:14.573Z,2.5
2022-11-27T06:21:57.508Z,2.8
2022-11-27T06:27:40.340Z,2.9
2022-11-27T06:33:23.223Z,2.6
2022-11-27T06:39:07.203Z,2.8
2022-11-27T06:44:51.998Z,2.6
2022-11-27T06:50:35.133Z,2.4
2022-11-27T06:56:19.313Z,2.6
2022-11-27T07:02:02.744Z,3.3
2022-11-27T07:07:46.070Z,3.1
2022-11-27T07:13:30.077Z,2.6
2022-11-27T07:19:13.253Z,2.7
2022-11-27T07:24:56.162Z,2.9
2022-11-27T07:30:39.279Z,2.8
2022-11-27T07:36:24.696Z,2.8
2022-11-27T07:48:11.788Z,2.4
2022-11-27T07:53:54.872Z,2.5
2022-11-27T07:59:38.731Z,2.9
2022-11-27T08:05:28.051Z,2.5
2022-11-27T08:11:15.911Z,2.8
2022-11-27T08:16:59.014Z,3.1
2022-11-27T08:22:42.928Z,2.8
2022-11-27T08:28:25.814Z,2.9
2022-11-27T08:34:08.621Z,2.8
2022-11-27T08:39:51.581Z,2.5
2022-11-27T08:45:34.755Z,3
2022-11-27T08:51:17.884Z,3.1
2022-11-27T08:57:01.009Z,2.9
2022-11-27T09:02:44.040Z,2.7
2022-11-27T09:08:27.060Z,2.7
2022-11-27T09:14:10.405Z,2.7
2022-11-27T09:19:53.737Z,2.8
2022-11-27T09:25:39.679Z,3.3
2022-11-27T09:31:23.284Z,3.1
2022-11-27T09:37:09.837Z,3
2022-11-27T09:42:55.572Z,3.1
2022-11-27T09:48:41.363Z,3
2022-11-27T09:54:25.576Z,3.2
2022-11-27T10:00:13.057Z,3.3
2022-11-27T10:06:01.062Z,3.3
2022-11-27T10:11:49.633Z,2.9
2022-11-27T10:17:36.360Z,3.2
2022-11-27T10:23:24.751Z,3.3
2022-11-27T10:29:12.879Z,3.3
2022-11-27T10:34:58.110Z,3.3
2022-11-27T10:40:45.450Z,3
2022-11-27T10:46:29.876Z,3.4
2022-11-27T10:52:16.071Z,3.1
2022-11-27T10:58:04.901Z,3.3
2022-11-27T11:03:48.284Z,3.2
2022-11-27T11:09:32.258Z,3.6
2022-11-27T11:15:16.212Z,3.2
2022-11-27T11:20:59.997Z,3.4
2022-11-27T11:26:46.130Z,3
2022-11-27T11:32:30.925Z,3.4
2022-11-27T11:38:19.709Z,3.1
2022-11-27T11:44:03.402Z,3.2
2022-11-27T11:49:47.778Z,3.2
2022-11-27T11:55:36.041Z,3.3
2022-11-27T12:01:29.223Z,3.5
2022-11-27T12:07:17.411Z,3.3
2022-11-27T12:13:04.993Z,3.4
2022-11-27T12:18:55.148Z,3.3
2022-11-27T12:24:45.035Z,3.4
2022-11-27T12:30:32.560Z,4.1
2022-11-27T12:36:21.455Z,4.3
2022-11-27T12:42:21.717Z,4.3
2022-11-27T12:48:08.779Z,4.1
2022-11-27T12:53:54.032Z,4.2
2022-11-27T12:59:40.632Z,4
2022-11-27T13:05:25.641Z,4.1
2022-11-27T13:11:11.626Z,4
2022-11-27T13:16:56.717Z,3.7
2022-11-27T13:22:39.821Z,3.7
2022-11-27T13:28:26.922Z,3.7
2022-11-27T13:34:11.667Z,3.9
2022-11-27T13:40:00.138Z,3.7
2022-11-27T13:45:43.405Z,3.9
2022-11-27T13:51:31.265Z,4
2022-11-27T13:57:18.873Z,3.6
2022-11-27T14:03:02.358Z,3.6
2022-11-27T14:08:50.426Z,3.7
2022-11-27T14:14:33.458Z,4
2022-11-27T14:20:31.574Z,3.8
2022-11-27T14:26:23.569Z,3.5
2022-11-27T14:32:12.306Z,3.4
2022-11-27T14:37:55.352Z,3.4
2022-11-27T14:43:38.750Z,3.2
2022-11-27T14:49:23.456Z,3.2
2022-11-27T14:55:07.043Z,3.4
2022-11-27T15:00:57.656Z,3.1
2022-11-27T15:06:41.743Z,3.2
2022-11-27T15:12:25.341Z,3.5
2022-11-27T15:18:09.237Z,3.3
2022-11-27T15:23:52.886Z,3.4
2022-11-27T15:29:37.774Z,3.4
2022-11-27T15:35:22.615Z,3.2
2022-11-27T15:41:05.837Z,3.8
2022-11-27T15:46:49.003Z,3.7
2022-11-27T15:52:32.105Z,3.6
2022-11-27T15:58:15.695Z,3.9
2022-11-27T16:03:59.133Z,3.5
2022-11-27T16:09:42.241Z,4
2022-11-27T16:15:33.623Z,3.6
2022-11-27T16:21:17.649Z,3.3
2022-11-27T16:27:00.772Z,29.3
2022-11-27T16:32:43.754Z,19.1
2022-11-27T16:38:27.412Z,14.8
2022-11-27T16:44:12.263Z,14.2
2022-11-27T16:49:55.546Z,13.1
2022-11-27T16:55:38.636Z,12.5
2022-11-27T17:01:23.124Z,11.5
2022-11-27T17:07:06.262Z,11.4
2022-11-27T17:12:49.113Z,11.1
2022-11-27T17:18:32.099Z,11.5
2022-11-27T17:24:17.713Z,10.2
2022-11-27T17:30:00.628Z,10.3
2022-11-27T17:35:43.779Z,9.9
2022-11-27T17:41:26.693Z,9.4
2022-11-27T17:47:09.728Z,8.4
2022-11-27T17:52:53.651Z,7.7
2022-11-27T17:58:36.855Z,9
2022-11-27T18:04:20.829Z,8.4
2022-11-27T18:10:03.806Z,8.4
2022-11-27T18:15:47.077Z,8.5
2022-11-27T18:21:29.901Z,7.8
2022-11-27T18:27:12.805Z,7.5
2022-11-27T18:32:55.884Z,7.1
2022-11-27T18:38:39.620Z,7.1
2022-11-27T18:44:22.749Z,6.6
2022-11-27T18:50:06.427Z,6.6
2022-11-27T18:55:54.287Z,6
2022-11-27T19:01:44.015Z,5.8
2022-11-27T19:07:27.056Z,6.2
2022-11-27T19:13:10.140Z,6.2
2022-11-27T19:18:53.153Z,5.6
2022-11-27T19:24:36.263Z,5.4
2022-11-27T19:30:19.997Z,5
2022-11-27T19:36:05.684Z,5.4
2022-11-27T19:41:48.711Z,4.7
2022-11-27T19:47:31.684Z,5.1
2022-11-27T19:53:14.784Z,4.4
2022-11-27T19:58:58.320Z,4.7
2022-11-27T20:04:42.278Z,4.5
2022-11-27T20:10:25.733Z,3.9
2022-11-27T20:16:12.872Z,4
2022-11-27T20:21:55.913Z,3.8
2022-11-27T20:27:39.051Z,3.7
2022-11-27T20:33:21.977Z,3.8
2022-11-27T20:39:05.549Z,3.4
2022-11-27T20:44:49.879Z,3.4
2022-11-27T20:50:33.032Z,3.4
2022-11-27T20:56:17.135Z,3.2
2022-11-27T21:02:00.555Z,3.2
2022-11-27T21:07:44.973Z,3.1
2022-11-27T21:13:28.237Z,3.2
2022-11-27T21:19:15.017Z,3.2
2022-11-27T21:24:58.134Z,3
2022-11-27T21:30:47.999Z,3.1
2022-11-27T21:36:33.329Z,3
2022-11-27T21:42:16.440Z,2.8
2022-11-27T21:47:59.750Z,2.9
2022-11-27T21:53:42.935Z,2.5
2022-11-27T21:59:26.093Z,2.5
2022-11-27T22:05:09.960Z,2.9
2022-11-27T22:10:53.186Z,2.6
2022-11-27T22:16:47.046Z,2.7
2022-11-27T22:22:30.665Z,2.9
2022-11-27T22:28:13.704Z,2.7
2022-11-27T22:33:56.953Z,2.3
2022-11-27T22:39:40.169Z,2.9
2022-11-27T22:45:23.440Z,2.4
2022-11-27T22:51:06.637Z,2.6
2022-11-27T22:56:49.820Z,2.6
2022-11-27T23:02:33.023Z,2.4
2022-11-27T23:08:16.334Z,2.5
2022-11-27T23:13:59.516Z,2.5
2022-11-27T23:19:42.487Z,2.6
2022-11-27T23:25:25.547Z,2.5
2022-11-27T23:31:29.720Z,2.3
2022-11-27T23:37:13.333Z,2.3
2022-11-27T23:42:56.385Z,2.2
2022-11-27T23:48:39.592Z,2.2
2022-11-27T23:54:22.557Z,2.1
